sensor_id;sensor_type;location;lat;lon;timestamp;P1;durP1;ratioP1;P2;durP2;ratioP2
73150;SDS011;61354;50.758;6.106;2023-08-17T00:02:12;9.35;;;5.60;;
73150;SDS011;61354;50.758;6.106;2023-08-17T00:04:38;9.45;;;6.15;;
73150;SDS011;61354;50.758;6.106;2023-08-17T00:07:04;8.07;;;6.13;;
73150;SDS011;61354;50.758;6.106;2023-08-17T00:09:30;7.40;;;5.53;;
73150;SDS011;61354;50.758;6.106;2023-08-17T00:11:56;10.27;;;7.03;;
73150;SDS011;61354;50.758;6.106;2023-08-17T00:14:21;8.93;;;6.88;;
73150;SDS011;61354;50.758;6.106;2023-08-17T00:16:48;11.68;;;7.25;;
73150;SDS011;61354;50.758;6.106;2023-08-17T00:19:14;9.88;;;7.28;;
73150;SDS011;61354;50.758;6.106;2023-08-17T00:21:40;10.52;;;7.20;;
73150;SDS011;61354;50.758;6.106;2023-08-17T00:24:06;10.77;;;7.47;;
73150;SDS011;61354;50.758;6.106;2023-08-17T00:26:31;12.52;;;8.05;;
73150;SDS011;61354;50.758;6.106;2023-08-17T00:28:57;12.13;;;9.65;;
73150;SDS011;61354;50.758;6.106;2023-08-17T00:31:23;10.85;;;8.38;;
73150;SDS011;61354;50.758;6.106;2023-08-17T00:33:48;14.00;;;8.32;;
73150;SDS011;61354;50.758;6.106;2023-08-17T00:36:14;12.40;;;9.32;;
73150;SDS011;61354;50.758;6.106;2023-08-17T00:38:40;13.20;;;9.38;;
73150;SDS011;61354;50.758;6.106;2023-08-17T00:41:06;11.05;;;8.07;;
73150;SDS011;61354;50.758;6.106;2023-08-17T00:43:31;11.45;;;8.88;;
73150;SDS011;61354;50.758;6.106;2023-08-17T00:45:57;13.30;;;9.27;;
73150;SDS011;61354;50.758;6.106;2023-08-17T00:48:23;12.57;;;8.93;;
73150;SDS011;61354;50.758;6.106;2023-08-17T00:50:50;12.18;;;9.00;;
73150;SDS011;61354;50.758;6.106;2023-08-17T00:55:43;11.98;;;8.98;;
73150;SDS011;61354;50.758;6.106;2023-08-17T00:58:09;12.10;;;8.40;;
73150;SDS011;61354;50.758;6.106;2023-08-17T01:00:35;10.88;;;8.23;;
73150;SDS011;61354;50.758;6.106;2023-08-17T01:03:01;10.85;;;7.97;;
73150;SDS011;61354;50.758;6.106;2023-08-17T01:05:27;10.57;;;8.32;;
73150;SDS011;61354;50.758;6.106;2023-08-17T01:07:52;11.88;;;8.93;;
73150;SDS011;61354;50.758;6.106;2023-08-17T01:10:18;10.38;;;7.95;;
73150;SDS011;61354;50.758;6.106;2023-08-17T01:12:48;14.75;;;8.68;;
73150;SDS011;61354;50.758;6.106;2023-08-17T01:15:35;11.45;;;7.82;;
73150;SDS011;61354;50.758;6.106;2023-08-17T01:20:56;9.73;;;7.07;;
73150;SDS011;61354;50.758;6.106;2023-08-17T01:23:22;12.20;;;7.90;;
73150;SDS011;61354;50.758;6.106;2023-08-17T01:25:48;11.10;;;7.60;;
73150;SDS011;61354;50.758;6.106;2023-08-17T01:28:14;11.55;;;8.73;;
73150;SDS011;61354;50.758;6.106;2023-08-17T01:33:22;14.85;;;8.15;;
73150;SDS011;61354;50.758;6.106;2023-08-17T01:35:59;10.50;;;7.82;;
73150;SDS011;61354;50.758;6.106;2023-08-17T01:38:29;15.10;;;8.85;;
73150;SDS011;61354;50.758;6.106;2023-08-17T01:40:56;11.93;;;8.13;;
73150;SDS011;61354;50.758;6.106;2023-08-17T01:43:23;11.05;;;7.70;;
73150;SDS011;61354;50.758;6.106;2023-08-17T01:45:49;12.48;;;8.55;;
73150;SDS011;61354;50.758;6.106;2023-08-17T01:48:14;13.20;;;8.77;;
73150;SDS011;61354;50.758;6.106;2023-08-17T01:50:40;11.48;;;8.63;;
73150;SDS011;61354;50.758;6.106;2023-08-17T01:53:06;11.43;;;8.70;;
73150;SDS011;61354;50.758;6.106;2023-08-17T01:55:31;11.35;;;7.85;;
73150;SDS011;61354;50.758;6.106;2023-08-17T01:57:57;12.55;;;9.13;;
73150;SDS011;61354;50.758;6.106;2023-08-17T02:00:22;13.90;;;9.45;;
73150;SDS011;61354;50.758;6.106;2023-08-17T02:02:48;13.88;;;9.13;;
73150;SDS011;61354;50.758;6.106;2023-08-17T02:05:13;13.27;;;9.27;;
73150;SDS011;61354;50.758;6.106;2023-08-17T02:07:39;13.50;;;8.52;;
73150;SDS011;61354;50.758;6.106;2023-08-17T02:10:05;13.82;;;9.40;;
73150;SDS011;61354;50.758;6.106;2023-08-17T02:12:31;15.93;;;9.20;;
73150;SDS011;61354;50.758;6.106;2023-08-17T02:14:56;12.75;;;9.60;;
73150;SDS011;61354;50.758;6.106;2023-08-17T02:17:22;13.57;;;9.27;;
73150;SDS011;61354;50.758;6.106;2023-08-17T02:19:47;15.23;;;9.32;;
73150;SDS011;61354;50.758;6.106;2023-08-17T02:22:13;13.38;;;9.32;;
73150;SDS011;61354;50.758;6.106;2023-08-17T02:24:40;14.45;;;9.15;;
73150;SDS011;61354;50.758;6.106;2023-08-17T02:27:06;14.73;;;9.52;;
73150;SDS011;61354;50.758;6.106;2023-08-17T02:29:32;15.18;;;9.52;;
73150;SDS011;61354;50.758;6.106;2023-08-17T02:31:57;16.23;;;8.98;;
73150;SDS011;61354;50.758;6.106;2023-08-17T02:34:23;11.85;;;8.98;;
73150;SDS011;61354;50.758;6.106;2023-08-17T02:36:49;12.50;;;7.90;;
73150;SDS011;61354;50.758;6.106;2023-08-17T02:39:14;12.80;;;8.13;;
73150;SDS011;61354;50.758;6.106;2023-08-17T02:41:40;12.48;;;8.32;;
73150;SDS011;61354;50.758;6.106;2023-08-17T02:44:06;12.63;;;8.45;;
73150;SDS011;61354;50.758;6.106;2023-08-17T02:46:31;16.02;;;9.60;;
73150;SDS011;61354;50.758;6.106;2023-08-17T02:48:57;13.15;;;8.73;;
73150;SDS011;61354;50.758;6.106;2023-08-17T02:51:23;11.43;;;8.10;;
73150;SDS011;61354;50.758;6.106;2023-08-17T02:53:48;10.90;;;8.02;;
73150;SDS011;61354;50.758;6.106;2023-08-17T02:56:14;11.35;;;7.70;;
73150;SDS011;61354;50.758;6.106;2023-08-17T02:58:39;10.23;;;7.78;;
73150;SDS011;61354;50.758;6.106;2023-08-17T03:01:08;12.77;;;8.38;;
73150;SDS011;61354;50.758;6.106;2023-08-17T03:03:34;12.27;;;8.05;;
73150;SDS011;61354;50.758;6.106;2023-08-17T03:06:00;12.20;;;8.13;;
73150;SDS011;61354;50.758;6.106;2023-08-17T03:08:27;12.23;;;8.35;;
73150;SDS011;61354;50.758;6.106;2023-08-17T03:10:52;12.70;;;9.25;;
73150;SDS011;61354;50.758;6.106;2023-08-17T03:13:18;12.38;;;8.90;;
73150;SDS011;61354;50.758;6.106;2023-08-17T03:15:44;11.50;;;9.13;;
73150;SDS011;61354;50.758;6.106;2023-08-17T03:18:09;12.32;;;8.38;;
73150;SDS011;61354;50.758;6.106;2023-08-17T03:20:35;11.68;;;8.93;;
73150;SDS011;61354;50.758;6.106;2023-08-17T03:23:00;12.25;;;9.05;;
73150;SDS011;61354;50.758;6.106;2023-08-17T03:25:26;14.00;;;8.90;;
73150;SDS011;61354;50.758;6.106;2023-08-17T03:27:52;13.32;;;8.23;;
73150;SDS011;61354;50.758;6.106;2023-08-17T03:30:18;12.55;;;8.82;;
73150;SDS011;61354;50.758;6.106;2023-08-17T03:32:43;12.63;;;8.85;;
73150;SDS011;61354;50.758;6.106;2023-08-17T03:35:09;13.18;;;9.05;;
73150;SDS011;61354;50.758;6.106;2023-08-17T03:37:34;12.15;;;8.65;;
73150;SDS011;61354;50.758;6.106;2023-08-17T03:40:00;11.98;;;9.05;;
73150;SDS011;61354;50.758;6.106;2023-08-17T03:42:26;12.02;;;9.02;;
73150;SDS011;61354;50.758;6.106;2023-08-17T03:44:52;11.07;;;9.13;;
73150;SDS011;61354;50.758;6.106;2023-08-17T03:47:18;12.10;;;8.65;;
73150;SDS011;61354;50.758;6.106;2023-08-17T03:49:44;12.18;;;9.07;;
73150;SDS011;61354;50.758;6.106;2023-08-17T03:52:10;11.85;;;8.82;;
73150;SDS011;61354;50.758;6.106;2023-08-17T03:54:35;12.43;;;8.65;;
73150;SDS011;61354;50.758;6.106;2023-08-17T03:57:01;12.60;;;8.75;;
73150;SDS011;61354;50.758;6.106;2023-08-17T03:59:27;11.98;;;8.57;;
73150;SDS011;61354;50.758;6.106;2023-08-17T04:01:53;12.65;;;9.05;;
73150;SDS011;61354;50.758;6.106;2023-08-17T04:04:19;12.45;;;9.13;;
73150;SDS011;61354;50.758;6.106;2023-08-17T04:06:44;15.07;;;9.25;;
73150;SDS011;61354;50.758;6.106;2023-08-17T04:09:10;13.30;;;9.15;;
73150;SDS011;61354;50.758;6.106;2023-08-17T04:11:36;13.77;;;9.20;;
73150;SDS011;61354;50.758;6.106;2023-08-17T04:14:02;12.77;;;9.07;;
73150;SDS011;61354;50.758;6.106;2023-08-17T04:16:28;12.85;;;9.48;;
73150;SDS011;61354;50.758;6.106;2023-08-17T04:18:54;13.70;;;9.25;;
73150;SDS011;61354;50.758;6.106;2023-08-17T04:21:19;11.93;;;9.18;;
73150;SDS011;61354;50.758;6.106;2023-08-17T04:23:45;14.35;;;10.00;;
73150;SDS011;61354;50.758;6.106;2023-08-17T04:26:11;13.82;;;9.48;;
73150;SDS011;61354;50.758;6.106;2023-08-17T04:28:37;13.25;;;9.57;;
73150;SDS011;61354;50.758;6.106;2023-08-17T04:31:02;15.07;;;10.52;;
73150;SDS011;61354;50.758;6.106;2023-08-17T04:33:28;13.75;;;9.32;;
73150;SDS011;61354;50.758;6.106;2023-08-17T04:35:54;12.85;;;9.18;;
73150;SDS011;61354;50.758;6.106;2023-08-17T04:38:20;13.15;;;9.43;;
73150;SDS011;61354;50.758;6.106;2023-08-17T04:40:45;13.30;;;9.40;;
73150;SDS011;61354;50.758;6.106;2023-08-17T04:43:11;13.57;;;9.48;;
73150;SDS011;61354;50.758;6.106;2023-08-17T04:45:37;14.52;;;9.63;;
73150;SDS011;61354;50.758;6.106;2023-08-17T04:48:03;13.20;;;9.43;;
73150;SDS011;61354;50.758;6.106;2023-08-17T04:50:29;12.73;;;9.15;;
73150;SDS011;61354;50.758;6.106;2023-08-17T04:52:54;13.02;;;9.30;;
73150;SDS011;61354;50.758;6.106;2023-08-17T04:55:20;16.02;;;10.52;;
73150;SDS011;61354;50.758;6.106;2023-08-17T04:57:46;14.20;;;9.25;;
73150;SDS011;61354;50.758;6.106;2023-08-17T05:00:12;16.23;;;9.82;;
73150;SDS011;61354;50.758;6.106;2023-08-17T05:02:38;16.50;;;10.00;;
73150;SDS011;61354;50.758;6.106;2023-08-17T05:05:05;15.02;;;9.52;;
73150;SDS011;61354;50.758;6.106;2023-08-17T05:07:32;15.77;;;10.40;;
73150;SDS011;61354;50.758;6.106;2023-08-17T05:09:58;16.77;;;11.15;;
73150;SDS011;61354;50.758;6.106;2023-08-17T05:12:23;17.27;;;10.73;;
73150;SDS011;61354;50.758;6.106;2023-08-17T05:14:49;18.52;;;11.70;;
73150;SDS011;61354;50.758;6.106;2023-08-17T05:17:14;17.73;;;11.90;;
73150;SDS011;61354;50.758;6.106;2023-08-17T05:19:40;19.73;;;12.02;;
73150;SDS011;61354;50.758;6.106;2023-08-17T05:22:10;24.98;;;13.05;;
73150;SDS011;61354;50.758;6.106;2023-08-17T05:24:36;18.88;;;11.85;;
73150;SDS011;61354;50.758;6.106;2023-08-17T05:27:02;19.60;;;11.10;;
73150;SDS011;61354;50.758;6.106;2023-08-17T05:29:28;21.90;;;11.90;;
73150;SDS011;61354;50.758;6.106;2023-08-17T05:31:53;18.73;;;11.20;;
73150;SDS011;61354;50.758;6.106;2023-08-17T05:34:19;18.83;;;11.50;;
73150;SDS011;61354;50.758;6.106;2023-08-17T05:36:44;19.30;;;11.35;;
73150;SDS011;61354;50.758;6.106;2023-08-17T05:39:10;19.67;;;11.70;;
73150;SDS011;61354;50.758;6.106;2023-08-17T05:41:36;17.27;;;11.07;;
73150;SDS011;61354;50.758;6.106;2023-08-17T05:44:01;17.08;;;11.55;;
73150;SDS011;61354;50.758;6.106;2023-08-17T05:46:27;20.90;;;12.45;;
73150;SDS011;61354;50.758;6.106;2023-08-17T05:48:53;19.20;;;12.90;;
73150;SDS011;61354;50.758;6.106;2023-08-17T05:51:18;21.85;;;13.27;;
73150;SDS011;61354;50.758;6.106;2023-08-17T05:53:44;18.90;;;12.77;;
73150;SDS011;61354;50.758;6.106;2023-08-17T05:56:10;21.40;;;12.23;;
73150;SDS011;61354;50.758;6.106;2023-08-17T05:58:35;23.52;;;12.85;;
73150;SDS011;61354;50.758;6.106;2023-08-17T06:01:07;23.50;;;13.57;;
73150;SDS011;61354;50.758;6.106;2023-08-17T06:03:36;23.92;;;12.90;;
73150;SDS011;61354;50.758;6.106;2023-08-17T06:06:05;22.27;;;13.25;;
73150;SDS011;61354;50.758;6.106;2023-08-17T06:08:31;19.73;;;11.68;;
73150;SDS011;61354;50.758;6.106;2023-08-17T06:10:57;22.35;;;12.35;;
73150;SDS011;61354;50.758;6.106;2023-08-17T06:13:23;20.88;;;11.15;;
73150;SDS011;61354;50.758;6.106;2023-08-17T06:15:48;21.80;;;11.65;;
73150;SDS011;61354;50.758;6.106;2023-08-17T06:18:14;23.27;;;12.20;;
73150;SDS011;61354;50.758;6.106;2023-08-17T06:20:40;23.13;;;10.88;;
73150;SDS011;61354;50.758;6.106;2023-08-17T06:23:05;22.35;;;12.60;;
73150;SDS011;61354;50.758;6.106;2023-08-17T06:25:31;22.33;;;11.57;;
73150;SDS011;61354;50.758;6.106;2023-08-17T06:27:56;22.58;;;11.93;;
73150;SDS011;61354;50.758;6.106;2023-08-17T06:30:22;25.83;;;12.88;;
73150;SDS011;61354;50.758;6.106;2023-08-17T06:32:48;23.42;;;12.70;;
73150;SDS011;61354;50.758;6.106;2023-08-17T06:35:16;23.58;;;13.70;;
73150;SDS011;61354;50.758;6.106;2023-08-17T06:37:41;23.30;;;13.13;;
73150;SDS011;61354;50.758;6.106;2023-08-17T06:40:07;28.48;;;14.95;;
73150;SDS011;61354;50.758;6.106;2023-08-17T06:42:34;25.33;;;14.32;;
73150;SDS011;61354;50.758;6.106;2023-08-17T06:45:00;25.00;;;14.38;;
73150;SDS011;61354;50.758;6.106;2023-08-17T06:47:25;25.95;;;14.88;;
73150;SDS011;61354;50.758;6.106;2023-08-17T06:49:51;27.10;;;14.15;;
73150;SDS011;61354;50.758;6.106;2023-08-17T06:52:17;29.02;;;16.00;;
73150;SDS011;61354;50.758;6.106;2023-08-17T06:54:42;27.83;;;15.77;;
73150;SDS011;61354;50.758;6.106;2023-08-17T06:57:08;27.10;;;15.60;;
73150;SDS011;61354;50.758;6.106;2023-08-17T06:59:34;27.85;;;16.05;;
73150;SDS011;61354;50.758;6.106;2023-08-17T07:01:59;31.73;;;17.42;;
73150;SDS011;61354;50.758;6.106;2023-08-17T07:04:25;31.42;;;16.60;;
73150;SDS011;61354;50.758;6.106;2023-08-17T07:06:50;30.08;;;17.15;;
73150;SDS011;61354;50.758;6.106;2023-08-17T07:09:16;30.30;;;17.40;;
73150;SDS011;61354;50.758;6.106;2023-08-17T07:11:42;33.60;;;17.15;;
73150;SDS011;61354;50.758;6.106;2023-08-17T07:14:07;27.40;;;17.25;;
73150;SDS011;61354;50.758;6.106;2023-08-17T07:16:33;31.23;;;17.17;;
73150;SDS011;61354;50.758;6.106;2023-08-17T07:18:59;28.95;;;17.13;;
73150;SDS011;61354;50.758;6.106;2023-08-17T07:21:25;29.80;;;16.65;;
73150;SDS011;61354;50.758;6.106;2023-08-17T07:23:53;29.85;;;16.83;;
73150;SDS011;61354;50.758;6.106;2023-08-17T07:26:19;33.38;;;17.63;;
73150;SDS011;61354;50.758;6.106;2023-08-17T07:28:46;30.45;;;18.10;;
73150;SDS011;61354;50.758;6.106;2023-08-17T07:31:12;33.05;;;17.48;;
73150;SDS011;61354;50.758;6.106;2023-08-17T07:33:38;29.77;;;17.75;;
73150;SDS011;61354;50.758;6.106;2023-08-17T07:36:04;28.13;;;16.55;;
73150;SDS011;61354;50.758;6.106;2023-08-17T07:38:30;34.53;;;17.60;;
73150;SDS011;61354;50.758;6.106;2023-08-17T07:40:55;30.60;;;17.08;;
73150;SDS011;61354;50.758;6.106;2023-08-17T07:43:21;29.95;;;16.65;;
73150;SDS011;61354;50.758;6.106;2023-08-17T07:45:53;27.63;;;16.63;;
73150;SDS011;61354;50.758;6.106;2023-08-17T07:48:20;28.45;;;16.00;;
73150;SDS011;61354;50.758;6.106;2023-08-17T07:50:49;30.88;;;16.67;;
73150;SDS011;61354;50.758;6.106;2023-08-17T07:53:18;34.45;;;18.20;;
73150;SDS011;61354;50.758;6.106;2023-08-17T07:55:44;30.88;;;18.67;;
73150;SDS011;61354;50.758;6.106;2023-08-17T07:58:10;35.38;;;17.85;;
73150;SDS011;61354;50.758;6.106;2023-08-17T08:00:35;32.72;;;18.10;;
73150;SDS011;61354;50.758;6.106;2023-08-17T08:03:01;32.55;;;16.92;;
73150;SDS011;61354;50.758;6.106;2023-08-17T08:05:26;29.95;;;18.30;;
73150;SDS011;61354;50.758;6.106;2023-08-17T08:07:52;29.65;;;17.63;;
73150;SDS011;61354;50.758;6.106;2023-08-17T08:10:18;34.22;;;18.92;;
73150;SDS011;61354;50.758;6.106;2023-08-17T08:12:44;32.78;;;17.88;;
73150;SDS011;61354;50.758;6.106;2023-08-17T08:15:09;31.05;;;17.70;;
73150;SDS011;61354;50.758;6.106;2023-08-17T08:17:35;33.40;;;18.58;;
73150;SDS011;61354;50.758;6.106;2023-08-17T08:20:01;31.88;;;18.65;;
73150;SDS011;61354;50.758;6.106;2023-08-17T08:22:27;32.03;;;17.88;;
73150;SDS011;61354;50.758;6.106;2023-08-17T08:24:52;33.47;;;18.05;;
73150;SDS011;61354;50.758;6.106;2023-08-17T08:27:18;32.67;;;18.02;;
73150;SDS011;61354;50.758;6.106;2023-08-17T08:29:44;34.08;;;18.35;;
73150;SDS011;61354;50.758;6.106;2023-08-17T08:32:09;31.13;;;17.95;;
73150;SDS011;61354;50.758;6.106;2023-08-17T08:34:35;31.08;;;17.48;;
73150;SDS011;61354;50.758;6.106;2023-08-17T08:37:01;31.67;;;15.70;;
73150;SDS011;61354;50.758;6.106;2023-08-17T08:39:26;31.17;;;17.77;;
73150;SDS011;61354;50.758;6.106;2023-08-17T08:41:52;29.35;;;16.08;;
73150;SDS011;61354;50.758;6.106;2023-08-17T08:44:21;29.80;;;16.35;;
73150;SDS011;61354;50.758;6.106;2023-08-17T08:46:47;29.20;;;16.08;;
73150;SDS011;61354;50.758;6.106;2023-08-17T08:49:13;30.10;;;16.38;;
73150;SDS011;61354;50.758;6.106;2023-08-17T08:51:46;28.98;;;17.52;;
73150;SDS011;61354;50.758;6.106;2023-08-17T08:54:18;32.00;;;17.30;;
73150;SDS011;61354;50.758;6.106;2023-08-17T08:56:48;30.17;;;16.63;;
73150;SDS011;61354;50.758;6.106;2023-08-17T08:59:19;29.92;;;16.50;;
73150;SDS011;61354;50.758;6.106;2023-08-17T09:01:46;29.88;;;16.67;;
73150;SDS011;61354;50.758;6.106;2023-08-17T09:04:12;30.98;;;17.20;;
73150;SDS011;61354;50.758;6.106;2023-08-17T09:06:39;26.67;;;16.00;;
73150;SDS011;61354;50.758;6.106;2023-08-17T09:09:07;30.48;;;17.02;;
73150;SDS011;61354;50.758;6.106;2023-08-17T09:11:33;31.88;;;16.13;;
73150;SDS011;61354;50.758;6.106;2023-08-17T09:13:58;27.13;;;15.52;;
73150;SDS011;61354;50.758;6.106;2023-08-17T09:16:24;28.42;;;15.85;;
73150;SDS011;61354;50.758;6.106;2023-08-17T09:18:49;27.23;;;14.95;;
73150;SDS011;61354;50.758;6.106;2023-08-17T09:21:21;30.70;;;17.20;;
73150;SDS011;61354;50.758;6.106;2023-08-17T09:23:55;27.92;;;16.35;;
73150;SDS011;61354;50.758;6.106;2023-08-17T09:26:21;31.25;;;16.70;;
73150;SDS011;61354;50.758;6.106;2023-08-17T09:28:50;30.88;;;16.17;;
73150;SDS011;61354;50.758;6.106;2023-08-17T09:31:20;33.63;;;16.27;;
73150;SDS011;61354;50.758;6.106;2023-08-17T09:33:48;28.55;;;16.35;;
73150;SDS011;61354;50.758;6.106;2023-08-17T09:36:19;25.88;;;15.50;;
73150;SDS011;61354;50.758;6.106;2023-08-17T09:38:47;28.58;;;15.60;;
73150;SDS011;61354;50.758;6.106;2023-08-17T09:41:19;25.55;;;15.60;;
73150;SDS011;61354;50.758;6.106;2023-08-17T09:43:46;26.95;;;15.77;;
73150;SDS011;61354;50.758;6.106;2023-08-17T09:46:12;29.67;;;15.70;;
73150;SDS011;61354;50.758;6.106;2023-08-17T09:48:38;29.27;;;14.63;;
73150;SDS011;61354;50.758;6.106;2023-08-17T09:51:03;27.00;;;15.45;;
73150;SDS011;61354;50.758;6.106;2023-08-17T09:53:34;25.02;;;14.63;;
73150;SDS011;61354;50.758;6.106;2023-08-17T09:56:02;26.70;;;14.82;;
73150;SDS011;61354;50.758;6.106;2023-08-17T09:58:29;25.00;;;14.80;;
73150;SDS011;61354;50.758;6.106;2023-08-17T10:00:54;27.35;;;15.60;;
73150;SDS011;61354;50.758;6.106;2023-08-17T10:03:21;30.58;;;15.90;;
73150;SDS011;61354;50.758;6.106;2023-08-17T10:05:59;25.13;;;14.75;;
73150;SDS011;61354;50.758;6.106;2023-08-17T10:08:29;24.48;;;15.45;;
73150;SDS011;61354;50.758;6.106;2023-08-17T10:10:56;23.48;;;13.25;;
73150;SDS011;61354;50.758;6.106;2023-08-17T10:13:28;23.48;;;14.65;;
73150;SDS011;61354;50.758;6.106;2023-08-17T10:16:29;22.50;;;13.50;;
73150;SDS011;61354;50.758;6.106;2023-08-17T10:19:09;23.90;;;13.82;;
73150;SDS011;61354;50.758;6.106;2023-08-17T10:21:50;26.27;;;14.50;;
73150;SDS011;61354;50.758;6.106;2023-08-17T10:24:21;27.13;;;15.30;;
73150;SDS011;61354;50.758;6.106;2023-08-17T10:26:48;29.27;;;14.93;;
73150;SDS011;61354;50.758;6.106;2023-08-17T10:29:15;27.65;;;14.73;;
73150;SDS011;61354;50.758;6.106;2023-08-17T10:31:43;24.63;;;14.30;;
73150;SDS011;61354;50.758;6.106;2023-08-17T10:34:11;23.90;;;13.75;;
73150;SDS011;61354;50.758;6.106;2023-08-17T10:36:37;26.55;;;14.38;;
73150;SDS011;61354;50.758;6.106;2023-08-17T10:41:49;25.45;;;13.27;;
73150;SDS011;61354;50.758;6.106;2023-08-17T10:44:17;25.13;;;14.15;;
73150;SDS011;61354;50.758;6.106;2023-08-17T10:46:43;23.95;;;13.88;;
73150;SDS011;61354;50.758;6.106;2023-08-17T10:49:26;27.63;;;15.13;;
73150;SDS011;61354;50.758;6.106;2023-08-17T10:52:02;24.13;;;13.98;;
73150;SDS011;61354;50.758;6.106;2023-08-17T10:54:38;24.92;;;13.93;;
73150;SDS011;61354;50.758;6.106;2023-08-17T11:02:38;26.13;;;13.25;;
73150;SDS011;61354;50.758;6.106;2023-08-17T11:05:04;26.42;;;13.93;;
73150;SDS011;61354;50.758;6.106;2023-08-17T11:07:40;25.83;;;14.95;;
73150;SDS011;61354;50.758;6.106;2023-08-17T11:12:44;26.00;;;16.05;;
73150;SDS011;61354;50.758;6.106;2023-08-17T11:15:10;28.65;;;15.38;;
73150;SDS011;61354;50.758;6.106;2023-08-17T11:17:36;24.48;;;15.20;;
73150;SDS011;61354;50.758;6.106;2023-08-17T11:20:02;26.73;;;15.77;;
73150;SDS011;61354;50.758;6.106;2023-08-17T11:22:29;27.35;;;15.02;;
73150;SDS011;61354;50.758;6.106;2023-08-17T11:24:54;25.33;;;15.05;;
73150;SDS011;61354;50.758;6.106;2023-08-17T11:27:20;29.83;;;17.10;;
73150;SDS011;61354;50.758;6.106;2023-08-17T11:29:46;26.50;;;15.93;;
73150;SDS011;61354;50.758;6.106;2023-08-17T11:32:15;28.23;;;16.35;;
73150;SDS011;61354;50.758;6.106;2023-08-17T11:34:42;23.30;;;14.80;;
73150;SDS011;61354;50.758;6.106;2023-08-17T11:37:07;23.70;;;15.02;;
73150;SDS011;61354;50.758;6.106;2023-08-17T11:39:33;25.38;;;14.95;;
73150;SDS011;61354;50.758;6.106;2023-08-17T11:42:00;25.17;;;15.23;;
73150;SDS011;61354;50.758;6.106;2023-08-17T11:44:25;26.42;;;16.23;;
73150;SDS011;61354;50.758;6.106;2023-08-17T11:46:51;26.60;;;16.00;;
73150;SDS011;61354;50.758;6.106;2023-08-17T11:49:17;28.80;;;15.82;;
73150;SDS011;61354;50.758;6.106;2023-08-17T11:51:42;31.33;;;16.85;;
73150;SDS011;61354;50.758;6.106;2023-08-17T11:54:08;30.60;;;18.50;;
73150;SDS011;61354;50.758;6.106;2023-08-17T11:56:34;26.88;;;16.90;;
73150;SDS011;61354;50.758;6.106;2023-08-17T11:59:07;26.20;;;16.00;;
73150;SDS011;61354;50.758;6.106;2023-08-17T12:01:36;28.63;;;16.27;;
73150;SDS011;61354;50.758;6.106;2023-08-17T12:04:04;28.35;;;17.40;;
73150;SDS011;61354;50.758;6.106;2023-08-17T12:06:30;28.17;;;17.13;;
73150;SDS011;61354;50.758;6.106;2023-08-17T12:08:56;25.58;;;15.57;;
73150;SDS011;61354;50.758;6.106;2023-08-17T12:11:25;27.83;;;17.75;;
73150;SDS011;61354;50.758;6.106;2023-08-17T12:13:51;27.80;;;17.50;;
73150;SDS011;61354;50.758;6.106;2023-08-17T12:16:18;26.88;;;16.52;;
73150;SDS011;61354;50.758;6.106;2023-08-17T12:18:45;30.52;;;17.65;;
73150;SDS011;61354;50.758;6.106;2023-08-17T12:21:13;25.85;;;15.45;;
73150;SDS011;61354;50.758;6.106;2023-08-17T12:23:39;25.77;;;15.75;;
73150;SDS011;61354;50.758;6.106;2023-08-17T12:26:05;24.00;;;14.98;;
73150;SDS011;61354;50.758;6.106;2023-08-17T12:28:30;27.30;;;16.38;;
73150;SDS011;61354;50.758;6.106;2023-08-17T12:30:58;24.08;;;15.93;;
73150;SDS011;61354;50.758;6.106;2023-08-17T12:33:25;26.30;;;15.40;;
73150;SDS011;61354;50.758;6.106;2023-08-17T12:35:51;25.23;;;14.02;;
73150;SDS011;61354;50.758;6.106;2023-08-17T12:38:16;24.58;;;15.25;;
73150;SDS011;61354;50.758;6.106;2023-08-17T12:40:42;21.38;;;13.68;;
73150;SDS011;61354;50.758;6.106;2023-08-17T12:43:07;24.35;;;15.18;;
73150;SDS011;61354;50.758;6.106;2023-08-17T12:45:33;24.27;;;14.63;;
73150;SDS011;61354;50.758;6.106;2023-08-17T12:47:59;25.13;;;15.15;;
73150;SDS011;61354;50.758;6.106;2023-08-17T12:50:25;27.38;;;15.57;;
73150;SDS011;61354;50.758;6.106;2023-08-17T12:52:50;24.73;;;14.57;;
73150;SDS011;61354;50.758;6.106;2023-08-17T12:55:16;23.63;;;15.00;;
73150;SDS011;61354;50.758;6.106;2023-08-17T12:57:42;25.58;;;15.27;;
73150;SDS011;61354;50.758;6.106;2023-08-17T13:00:07;26.10;;;15.40;;
73150;SDS011;61354;50.758;6.106;2023-08-17T13:05:00;29.52;;;15.95;;
73150;SDS011;61354;50.758;6.106;2023-08-17T13:07:26;26.58;;;15.68;;
73150;SDS011;61354;50.758;6.106;2023-08-17T13:09:51;29.60;;;17.05;;
73150;SDS011;61354;50.758;6.106;2023-08-17T13:12:17;27.50;;;16.67;;
73150;SDS011;61354;50.758;6.106;2023-08-17T13:14:42;25.38;;;15.98;;
73150;SDS011;61354;50.758;6.106;2023-08-17T13:17:08;25.33;;;16.15;;
73150;SDS011;61354;50.758;6.106;2023-08-17T13:19:34;27.80;;;16.27;;
73150;SDS011;61354;50.758;6.106;2023-08-17T13:21:59;25.58;;;15.65;;
73150;SDS011;61354;50.758;6.106;2023-08-17T13:24:25;25.23;;;14.57;;
73150;SDS011;61354;50.758;6.106;2023-08-17T13:26:50;27.45;;;16.52;;
73150;SDS011;61354;50.758;6.106;2023-08-17T13:29:18;26.83;;;16.08;;
73150;SDS011;61354;50.758;6.106;2023-08-17T13:31:46;28.23;;;16.90;;
73150;SDS011;61354;50.758;6.106;2023-08-17T13:34:13;26.95;;;16.02;;
73150;SDS011;61354;50.758;6.106;2023-08-17T13:36:38;28.02;;;16.25;;
73150;SDS011;61354;50.758;6.106;2023-08-17T13:39:04;28.00;;;17.30;;
73150;SDS011;61354;50.758;6.106;2023-08-17T13:41:31;27.65;;;16.48;;
73150;SDS011;61354;50.758;6.106;2023-08-17T13:43:57;29.20;;;16.77;;
73150;SDS011;61354;50.758;6.106;2023-08-17T13:46:23;27.38;;;16.63;;
73150;SDS011;61354;50.758;6.106;2023-08-17T13:48:48;28.85;;;17.95;;
73150;SDS011;61354;50.758;6.106;2023-08-17T13:51:14;27.33;;;16.15;;
73150;SDS011;61354;50.758;6.106;2023-08-17T13:53:40;28.88;;;16.75;;
73150;SDS011;61354;50.758;6.106;2023-08-17T13:56:05;29.48;;;16.45;;
73150;SDS011;61354;50.758;6.106;2023-08-17T13:58:31;25.92;;;14.75;;
73150;SDS011;61354;50.758;6.106;2023-08-17T14:00:57;27.98;;;14.88;;
73150;SDS011;61354;50.758;6.106;2023-08-17T14:03:22;31.65;;;16.17;;
73150;SDS011;61354;50.758;6.106;2023-08-17T14:05:48;30.00;;;15.65;;
73150;SDS011;61354;50.758;6.106;2023-08-17T14:08:14;30.80;;;16.92;;
73150;SDS011;61354;50.758;6.106;2023-08-17T14:10:39;27.95;;;16.48;;
73150;SDS011;61354;50.758;6.106;2023-08-17T14:13:05;31.02;;;18.02;;
73150;SDS011;61354;50.758;6.106;2023-08-17T14:15:31;30.00;;;16.55;;
73150;SDS011;61354;50.758;6.106;2023-08-17T14:17:56;27.90;;;15.60;;
73150;SDS011;61354;50.758;6.106;2023-08-17T14:20:22;29.00;;;15.32;;
73150;SDS011;61354;50.758;6.106;2023-08-17T14:22:47;30.88;;;16.05;;
73150;SDS011;61354;50.758;6.106;2023-08-17T14:25:13;28.55;;;15.30;;
73150;SDS011;61354;50.758;6.106;2023-08-17T14:27:38;29.02;;;15.73;;
73150;SDS011;61354;50.758;6.106;2023-08-17T14:30:04;28.02;;;15.95;;
73150;SDS011;61354;50.758;6.106;2023-08-17T14:32:30;27.33;;;16.02;;
73150;SDS011;61354;50.758;6.106;2023-08-17T14:34:56;30.98;;;16.50;;
73150;SDS011;61354;50.758;6.106;2023-08-17T14:37:22;26.80;;;15.25;;
73150;SDS011;61354;50.758;6.106;2023-08-17T14:39:47;28.67;;;15.70;;
73150;SDS011;61354;50.758;6.106;2023-08-17T14:42:13;27.08;;;15.80;;
73150;SDS011;61354;50.758;6.106;2023-08-17T14:44:38;27.13;;;16.17;;